Flight Track Log - Related Links

Times and Time Zones

All times are in EDT time to prevent confusion due to time zone crossing. See the N435QS flight status page for this flight to view local times or setup timezone preferences in your user account.

Time Position Orientation Groundspeed Altitude Reporting Facility
EDT Latitude Longitude Course Direction KTS MPH feet Rate Location/Type
08:42PM 35.8542 -78.8083 239° Southwest 216 249 1,400  Level Washington Center
08:43PM 35.8253 -78.8686 239° Southwest 245 282 4,700 3,548 Climbing Washington Center
08:44PM 35.8394 -78.9664 280° West 295 339 8,200 3,319 Climbing Washington Center
08:45PM 35.8400 -79.0125 271° West 308 354 9,900 2,676 Climbing Washington Center
08:47PM 35.8347 -79.2283 268° West 339 390 14,400 2,494 Climbing Atlanta Center
08:48PM 35.8294 -79.3619 267° West 368 423 16,800 2,400 Climbing Atlanta Center
08:49PM 35.8181 -79.5008 264° West 391 450 19,200 2,433 Climbing Atlanta Center
08:51PM 35.7717 -79.7825 259° West 410 472 24,100 2,233 Climbing Atlanta Center
08:52PM 35.7472 -79.9244 258° West 417 480 25,900 1,850 Climbing Atlanta Center
08:53PM 35.7500 -80.0700 271° West 427 491 27,800 1,950 Climbing Atlanta Center
08:54PM 35.8247 -80.1894 308° West 403 464 29,800 1,900 Climbing Atlanta Center
08:55PM 35.9033 -80.3036 310° West 424 488 31,600 1,550 Climbing Atlanta Center
08:56PM 35.9750 -80.4003 313° West 429 494 32,900 1,400 Climbing Atlanta Center
08:57PM 36.0578 -80.5122 312° West 434 499 34,400 1,600 Climbing Atlanta Center
08:58PM 36.1531 -80.6392 313° West 454 522 36,100 1,600 Climbing Atlanta Center
08:59PM 36.2289 -80.7467 311° West 460 529 37,600 1,500 Climbing Atlanta Center
09:00PM 36.3111 -80.8592 312° West 455 524 39,100 1,200 Climbing Atlanta Center
09:01PM 36.3892 -80.9697 311° West 442 509 40,000 450 Climbing Atlanta Center
09:02PM 36.4689 -81.0828 311° West 437 503 40,000  Level Atlanta Center
09:03PM 36.5531 -81.2011 312° West 442 509 40,000  Level Atlanta Center
09:04PM 36.6328 -81.3122 312° West 442 509 40,000  Level Atlanta Center
09:06PM 36.8186 -81.5797 311° West 440 506 40,000  Level Indianapolis Center
09:07PM 36.8997 -81.6947 311° West 441 507 40,000  Level Indianapolis Center
09:08PM 37.0178 -81.8656 311° West 438 504 40,000  Level Indianapolis Center
09:09PM 37.0969 -81.9814 311° West 436 502 40,000  Level Indianapolis Center
09:10PM 37.1772 -82.0972 311° West 437 503 40,000  Level Indianapolis Center
09:11PM 37.2583 -82.2142 311° West 440 506 40,000  Level Indianapolis Center
09:13PM 37.3378 -82.3303 311° West 440 506 40,000 390 Level Indianapolis Center
09:14PM 37.4314 -82.4683 311° West 442 509 40,800 1,220 Climbing Indianapolis Center
09:15PM 37.5097 -82.5844 310° West 442 509 42,500 1,122 Climbing Indianapolis Center
09:16PM 37.5867 -82.6975 311° West 433 498 43,100 244 Climbing Indianapolis Center
09:17PM 37.6672 -82.8167 311° West 438 504 43,000 -49 Descending Indianapolis Center
09:18PM 37.7492 -82.9394 310° West 451 519 43,000  Level Indianapolis Center
09:19PM 37.8317 -83.0619 310° West 453 521 43,000  Level Indianapolis Center
09:20PM 37.9142 -83.1856 310° West 456 525 43,000  Level Indianapolis Center
09:21PM 38.0103 -83.3317 310° West 459 528 43,000  Level Indianapolis Center
09:22PM 38.0925 -83.4547 310° West 459 528 43,000  Level Indianapolis Center
09:23PM 38.1736 -83.5806 309° West 459 528 43,000  Level Indianapolis Center
09:24PM 38.2536 -83.7028 310° West 456 525 43,000  Level Indianapolis Center
09:25PM 38.3350 -83.8256 310° West 454 522 43,000  Level Indianapolis Center
09:26PM 38.4161 -83.9475 310° West 454 522 43,000  Level Indianapolis Center
09:27PM 38.4953 -84.0733 309° West 454 522 43,000  Level Indianapolis Center
09:28PM 38.5897 -84.2189 310° West 454 522 43,000  Level Indianapolis Center
09:29PM 38.6692 -84.3400 310° West 458 527 43,000  Level Indianapolis Center
09:30PM 38.7450 -84.4739 306° West 459 528 43,000  Level Indianapolis Center
09:31PM 38.8183 -84.6014 306° West 463 533 43,000  Level Indianapolis Center
09:32PM 38.8961 -84.7353 307° West 465 535 43,000  Level Indianapolis Center
09:33PM 38.9736 -84.8708 306° West 467 537 43,000  Level Indianapolis Center
09:34PM 39.0669 -85.0308 307° West 467 537 43,000  Level Indianapolis Center
09:35PM 39.1428 -85.1661 306° West 467 537 43,000  Level Indianapolis Center
09:36PM 39.2192 -85.2989 307° West 466 536 43,000  Level Indianapolis Center
09:37PM 39.2958 -85.4344 306° West 466 536 43,000  Level Indianapolis Center
09:38PM 39.3728 -85.5714 306° West 467 537 43,000  Level Indianapolis Center
09:39PM 39.4486 -85.7078 306° West 467 537 43,000  Level Indianapolis Center
09:40PM 39.5253 -85.8447 306° West 468 539 43,000  Level Indianapolis Center
09:41PM 39.6008 -85.9786 306° West 467 537 43,000  Level Indianapolis Center
09:42PM 39.6764 -86.1147 306° West 467 537 43,000  Level Indianapolis Center
09:43PM 39.7556 -86.2597 305° West 468 539 43,000  Level Indianapolis Center
09:44PM 39.8619 -86.4136 312° West 476 548 43,000  Level Indianapolis Center
09:45PM 39.9522 -86.4978 324° Northwest 459 528 43,000  Level Indianapolis Center
09:46PM 40.0564 -86.5956 324° Northwest 458 527 43,000  Level Indianapolis Center
09:47PM 40.1400 -86.6744 339° North 461 531 43,000 -104 Level Chicago Center
09:49PM 40.2834 -86.7356 339° North  Level FlightAware Approximate
09:49PM 40.4006 -86.8150 338° Northwest 462 532 42,700  Level Chicago Center
09:50PM 40.5203 -86.8764 339° North 462 532 41,700 -976 Descending Chicago Center
09:51PM 40.6372 -86.9356 339° North 452 520 40,700 -1,016 Descending Chicago Center
09:52PM 40.7678 -87.0019 339° North 454 522 39,600 -1,463 Descending Chicago Center
09:53PM 40.8861 -87.0639 338° Northwest 456 525 37,700 -2,341 Descending Chicago Center
09:54PM 41.0053 -87.1247 339° North 460 529 34,800 -1,790 Descending Chicago Center
09:55PM 41.1342 -87.1589 349° North 475 547 34,000 -1,317 Descending Chicago Center
09:56PM 41.2650 -87.1756 355° North 478 550 32,100 -2,293 Descending Chicago Center
09:57PM 41.4211 -87.1936 355° North 473 544 29,300 -2,732 Descending Chicago Center
09:58PM 41.5508 -87.2100 355° North 473 544 26,500 -2,488 Descending Chicago Center
09:59PM 41.6758 -87.2242 355° North 461 531 24,200 -1,597 Descending Chicago Center
10:00PM 41.7983 -87.2397 355° North 450 518 23,200 -1,220 Descending Chicago Center
10:01PM 41.9186 -87.2531 355° North 440 506 21,700 -1,463 Descending Chicago Center
10:03PM 42.0389 -87.2706 354° North 440 506 20,200 -823 Descending Chicago Center
10:04PM 42.1542 -87.2806 356° North 423 487 20,000 -390 Descending Chicago Center
10:05PM 42.2978 -87.2994 354° North 427 491 19,400 -1,024 Descending Chicago Center
10:06PM 42.4144 -87.3133 355° North 426 490 17,900 -1,756 Descending Chicago Center
10:07PM 42.5158 -87.3267 354° North 413 475 15,800 -2,585 Descending Chicago Center
10:08PM 42.6203 -87.3383 355° North 381 438 12,600 -2,806 Descending Chicago Center
10:09PM 42.6969 -87.4350 317° Northwest 347 399 10,000 -1,805 Descending Chicago Center
10:10PM 42.7083 -87.5428 278° West 295 339 8,900 -1,463 Descending Chicago Center
10:11PM 42.6886 -87.6422 255° West 283 326 7,000 -1,756 Descending Chicago Center
10:12PM 42.6219 -87.6900 208° Southwest 272 313 5,300 -984 Descending Chicago Center
10:13PM 42.5542 -87.7331 205° Southwest 271 312 5,000 -146 Descending Chicago Center
10:14PM 42.4947 -87.7747 207° Southwest 240 276 5,000  Level Chicago Center
10:15PM 42.4247 -87.8183 205° Southwest 233 268 5,000 -49 Level Chicago Center
10:16PM 42.3725 -87.8550 207° Southwest 214 246 4,900 -537 Descending Chicago Center
10:17PM 42.3306 -87.8992 218° Southwest 195 224 3,900 -934 Descending Chicago Center
10:18PM 42.2872 -87.9450 218° Southwest 186 214 3,000 -439 Descending Chicago Center
10:19PM 42.2467 -87.9594 195° South 154 177 3,000 -341 Level Chicago Center
10:20PM 42.2042 -87.9519 173° South 154 177 2,300 -683 Descending Chicago Center
10:21PM 42.1664 -87.9303 157° South 134 154 1,600 -585 Descending Chicago Center
10:22PM 42.1358 -87.9147 159° South 125 144 1,100 -492 Descending Chicago Center
10:24PM 42.1143 -87.9015 169° South  Level Estimated

Login

Don't have an account? Register now (free) for customized features, flight alerts, and more!